Time;durP1;ratioP1;P1;durP2;ratioP2;P2;SDS_P1;SDS_P2;PMS_P1;PMS_P2;Temp;Humidity;BMP_temperature;BMP_pressure;BME280_temperature;BME280_humidity;BME280_pressure;Samples;Min_cycle;Max_cycle;Signal;HPM_P1;HPM_P2
2022/09/26 00:01:27;;;;;;;7.10;5.90;;;;;;;;;;5035166;28;20196;-84
2022/09/26 00:03:55;;;;;;;6.97;5.73;;;;;;;;;;5044234;28;20180;-84
2022/09/26 00:06:21;;;;;;;10.63;6.33;;;;;;;;;;5055234;28;20246;-84
2022/09/26 00:08:48;;;;;;;8.97;6.20;;;;;;;;;;5038476;28;20191;-84
2022/09/26 00:11:15;;;;;;;10.43;6.07;;;;;;;;;;5054164;28;20238;-84
2022/09/26 00:13:42;;;;;;;7.23;5.87;;;;;;;;;;5054872;28;20903;-84
2022/09/26 00:16:08;;;;;;;6.90;6.07;;;;;;;;;;5045106;28;20177;-84
2022/09/26 00:18:34;;;;;;;8.93;6.50;;;;;;;;;;5047603;28;20192;-84
2022/09/26 00:21:04;;;;;;;7.10;6.30;;;;;;;;;;5031087;28;20311;-83
2022/09/26 00:23:30;;;;;;;11.00;6.53;;;;;;;;;;5041394;28;20270;-84
2022/09/26 00:25:57;;;;;;;8.00;6.20;;;;;;;;;;5037264;28;20169;-82
2022/09/26 00:28:23;;;;;;;9.37;6.20;;;;;;;;;;5054395;28;20181;-82
2022/09/26 00:30:49;;;;;;;7.67;6.03;;;;;;;;;;5050204;28;20184;-83
2022/09/26 00:33:16;;;;;;;7.33;6.17;;;;;;;;;;5034356;28;20184;-83
2022/09/26 00:35:48;;;;;;;6.60;6.00;;;;;;;;;;5038356;28;20256;-84
2022/09/26 00:38:14;;;;;;;6.97;6.03;;;;;;;;;;5034782;28;20179;-83
2022/09/26 00:40:40;;;;;;;8.47;6.30;;;;;;;;;;5051426;28;20232;-83
2022/09/26 00:43:24;;;;;;;8.87;5.93;;;;;;;;;;5018186;28;20192;-83
2022/09/26 00:45:50;;;;;;;7.40;5.33;;;;;;;;;;5039947;28;20185;-83
2022/09/26 00:48:18;;;;;;;6.93;5.60;;;;;;;;;;5018028;28;20279;-83
2022/09/26 00:50:44;;;;;;;6.43;5.70;;;;;;;;;;5036383;28;20184;-83
2022/09/26 00:53:31;;;;;;;7.90;5.40;;;;;;;;;;5047793;28;20192;-82
2022/09/26 00:55:59;;;;;;;8.97;5.63;;;;;;;;;;5041476;28;21504;-83
2022/09/26 00:58:30;;;;;;;7.03;5.50;;;;;;;;;;5033911;28;20192;-84
2022/09/26 01:00:56;;;;;;;6.60;5.50;;;;;;;;;;5035735;28;20218;-83
2022/09/26 01:03:23;;;;;;;9.30;5.50;;;;;;;;;;5028873;28;20191;-83
2022/09/26 01:05:49;;;;;;;7.87;5.10;;;;;;;;;;5034369;28;20183;-83
2022/09/26 01:08:17;;;;;;;7.33;5.03;;;;;;;;;;5037280;28;20249;-84
2022/09/26 01:10:44;;;;;;;6.30;4.70;;;;;;;;;;5053411;28;20176;-84
2022/09/26 01:13:10;;;;;;;5.50;4.87;;;;;;;;;;5034073;28;20196;-84
2022/09/26 01:15:37;;;;;;;8.17;5.90;;;;;;;;;;5024564;28;20176;-84
2022/09/26 01:18:06;;;;;;;6.03;5.40;;;;;;;;;;5052466;28;20195;-84
2022/09/26 01:20:52;;;;;;;7.63;4.87;;;;;;;;;;5037125;28;20211;-85
2022/09/26 01:23:21;;;;;;;6.73;5.23;;;;;;;;;;5023710;28;20197;-84
2022/09/26 01:25:50;;;;;;;6.00;5.40;;;;;;;;;;5039223;28;20208;-85
2022/09/26 01:28:22;;;;;;;8.03;5.23;;;;;;;;;;5048127;28;20187;-83
2022/09/26 01:31:00;;;;;;;7.83;5.50;;;;;;;;;;5049698;28;20214;-84
2022/09/26 01:33:33;;;;;;;5.93;4.87;;;;;;;;;;5043057;28;20180;-83
2022/09/26 01:36:10;;;;;;;7.43;5.17;;;;;;;;;;5042756;28;20207;-82
2022/09/26 01:38:48;;;;;;;9.80;5.43;;;;;;;;;;5044561;28;20180;-83
2022/09/26 01:41:33;;;;;;;10.13;5.27;;;;;;;;;;5043376;28;20228;-84
2022/09/26 01:44:18;;;;;;;8.57;5.90;;;;;;;;;;5044040;28;20217;-83
2022/09/26 01:46:47;;;;;;;8.30;6.20;;;;;;;;;;5042640;28;20264;-82
2022/09/26 01:49:17;;;;;;;8.80;6.27;;;;;;;;;;5041918;28;20180;-83
2022/09/26 01:52:02;;;;;;;7.17;5.90;;;;;;;;;;5042356;28;20181;-82
2022/09/26 01:54:36;;;;;;;9.70;6.47;;;;;;;;;;5043670;28;20187;-82
2022/09/26 01:57:05;;;;;;;7.63;6.33;;;;;;;;;;5041880;28;20230;-84
2022/09/26 01:59:34;;;;;;;7.90;6.13;;;;;;;;;;5042581;28;20207;-84
2022/09/26 02:02:13;;;;;;;6.67;5.43;;;;;;;;;;5041163;28;20206;-84
2022/09/26 02:04:41;;;;;;;8.30;5.73;;;;;;;;;;5043488;28;20168;-83
2022/09/26 02:07:09;;;;;;;8.80;5.83;;;;;;;;;;5040898;28;20230;-83
2022/09/26 02:09:42;;;;;;;10.33;5.77;;;;;;;;;;5042272;28;20172;-84
2022/09/26 02:12:09;;;;;;;9.27;5.57;;;;;;;;;;5041772;28;20203;-83
2022/09/26 02:14:36;;;;;;;8.40;5.07;;;;;;;;;;5043701;28;20180;-83
2022/09/26 02:17:10;;;;;;;8.23;5.40;;;;;;;;;;5042549;28;20181;-82
2022/09/26 02:19:38;;;;;;;7.63;5.03;;;;;;;;;;5043827;28;20210;-83
2022/09/26 02:22:04;;;;;;;11.23;5.03;;;;;;;;;;5042978;28;20203;-84
2022/09/26 02:24:30;;;;;;;9.00;4.97;;;;;;;;;;5025670;28;20205;-84
2022/09/26 02:26:57;;;;;;;6.97;4.70;;;;;;;;;;5040407;28;20181;-83
2022/09/26 02:29:23;;;;;;;5.60;4.63;;;;;;;;;;5043891;28;20218;-84
2022/09/26 02:32:14;;;;;;;9.80;5.10;;;;;;;;;;5043886;28;20180;-84
2022/09/26 02:34:40;;;;;;;7.07;4.83;;;;;;;;;;5042103;28;20188;-83
2022/09/26 02:37:07;;;;;;;7.07;4.97;;;;;;;;;;5025922;28;20237;-83
2022/09/26 02:39:33;;;;;;;6.67;4.77;;;;;;;;;;5028655;28;20300;-83
2022/09/26 02:42:09;;;;;;;7.50;5.13;;;;;;;;;;5044657;28;20203;-83
2022/09/26 02:44:48;;;;;;;7.47;4.60;;;;;;;;;;5047558;28;20275;-83
2022/09/26 02:47:30;;;;;;;7.40;4.47;;;;;;;;;;5046268;28;20168;-84
2022/09/26 02:50:12;;;;;;;7.10;4.90;;;;;;;;;;5046824;28;20250;-84
2022/09/26 02:52:56;;;;;;;5.93;4.80;;;;;;;;;;5047748;28;20192;-84
2022/09/26 02:55:58;;;;;;;10.70;4.73;;;;;;;;;;5047614;28;20188;-84
2022/09/26 02:58:36;;;;;;;7.73;4.50;;;;;;;;;;5023009;28;20192;-84
2022/09/26 03:01:16;;;;;;;10.97;5.13;;;;;;;;;;5056223;28;20212;-83
2022/09/26 03:03:45;;;;;;;6.03;4.30;;;;;;;;;;5043942;28;20172;-84
2022/09/26 03:06:16;;;;;;;6.43;4.23;;;;;;;;;;5045780;28;20211;-83
2022/09/26 03:08:45;;;;;;;8.47;4.60;;;;;;;;;;5046727;28;20270;-83
2022/09/26 03:11:12;;;;;;;7.03;4.80;;;;;;;;;;5045456;28;20195;-84
2022/09/26 03:13:40;;;;;;;8.07;4.23;;;;;;;;;;5044159;28;20184;-83
2022/09/26 03:16:06;;;;;;;10.97;4.73;;;;;;;;;;5046641;28;20202;-83
2022/09/26 03:18:41;;;;;;;7.40;4.60;;;;;;;;;;5043988;28;20208;-83
2022/09/26 03:21:07;;;;;;;7.40;4.30;;;;;;;;;;5044041;28;20203;-83
2022/09/26 03:23:33;;;;;;;6.97;4.43;;;;;;;;;;5029808;28;20191;-84
2022/09/26 03:26:12;;;;;;;8.93;4.77;;;;;;;;;;5044183;28;20179;-84
2022/09/26 03:28:38;;;;;;;10.10;4.30;;;;;;;;;;5045031;28;20191;-84
2022/09/26 03:31:06;;;;;;;9.20;4.87;;;;;;;;;;5028737;28;20192;-84
2022/09/26 03:33:35;;;;;;;8.33;4.57;;;;;;;;;;5044918;28;20204;-84
2022/09/26 03:36:05;;;;;;;6.93;4.47;;;;;;;;;;5048588;28;20238;-85
2022/09/26 03:38:31;;;;;;;9.03;4.60;;;;;;;;;;5055895;28;20184;-85
2022/09/26 03:40:57;;;;;;;6.50;4.50;;;;;;;;;;5055734;28;20231;-82
2022/09/26 03:43:24;;;;;;;5.73;4.37;;;;;;;;;;5054968;28;20183;-82
2022/09/26 03:45:50;;;;;;;7.23;4.47;;;;;;;;;;5055205;28;20216;-82
2022/09/26 03:48:16;;;;;;;9.20;4.63;;;;;;;;;;5045852;28;20256;-82
2022/09/26 03:50:42;;;;;;;7.23;4.77;;;;;;;;;;5038051;28;20211;-82
2022/09/26 03:53:09;;;;;;;7.87;4.70;;;;;;;;;;5037470;28;20181;-82
2022/09/26 03:55:35;;;;;;;6.37;4.67;;;;;;;;;;5018796;28;20264;-82
2022/09/26 03:58:01;;;;;;;6.33;4.77;;;;;;;;;;5018554;28;20246;-82
2022/09/26 04:00:27;;;;;;;7.90;4.90;;;;;;;;;;5039523;28;20206;-82
2022/09/26 04:02:53;;;;;;;7.30;4.53;;;;;;;;;;5038480;28;20184;-82
2022/09/26 04:05:19;;;;;;;11.27;4.57;;;;;;;;;;5053407;28;20180;-82
2022/09/26 04:07:46;;;;;;;7.33;4.80;;;;;;;;;;5038335;28;20226;-82
2022/09/26 04:10:12;;;;;;;6.40;4.33;;;;;;;;;;5024976;28;20234;-83
2022/09/26 04:12:38;;;;;;;9.70;5.00;;;;;;;;;;5024436;28;20264;-84
2022/09/26 04:15:05;;;;;;;6.57;4.53;;;;;;;;;;5026712;28;20197;-83
2022/09/26 04:17:31;;;;;;;7.10;4.30;;;;;;;;;;5023558;28;20188;-84
2022/09/26 04:19:58;;;;;;;6.37;4.10;;;;;;;;;;5030622;28;20216;-84
2022/09/26 04:22:24;;;;;;;6.40;4.27;;;;;;;;;;5026044;28;20231;-84
2022/09/26 04:24:50;;;;;;;8.87;4.23;;;;;;;;;;5028299;28;20184;-83
2022/09/26 04:27:17;;;;;;;6.37;3.70;;;;;;;;;;5029041;28;20176;-84
2022/09/26 04:29:43;;;;;;;5.50;3.73;;;;;;;;;;5027273;28;20181;-84
2022/09/26 04:32:10;;;;;;;6.27;3.60;;;;;;;;;;5044367;28;20207;-84
2022/09/26 04:34:38;;;;;;;5.53;3.80;;;;;;;;;;5029521;28;20243;-84
2022/09/26 04:37:04;;;;;;;7.83;4.00;;;;;;;;;;5027755;28;20188;-84
2022/09/26 04:39:31;;;;;;;5.57;3.60;;;;;;;;;;5044243;28;20237;-84
2022/09/26 04:41:57;;;;;;;7.33;3.87;;;;;;;;;;5040896;28;20177;-84
2022/09/26 04:44:23;;;;;;;8.47;3.80;;;;;;;;;;5027768;28;20176;-82
2022/09/26 04:46:52;;;;;;;7.10;3.67;;;;;;;;;;5045918;28;20211;-82
2022/09/26 04:49:18;;;;;;;8.00;3.40;;;;;;;;;;5041900;28;20177;-83
2022/09/26 04:51:45;;;;;;;7.13;3.73;;;;;;;;;;5044259;28;20180;-82
2022/09/26 04:54:11;;;;;;;8.27;3.40;;;;;;;;;;5027919;28;20186;-82
2022/09/26 04:56:40;;;;;;;9.43;3.40;;;;;;;;;;5041883;28;20173;-82
2022/09/26 04:59:06;;;;;;;7.60;3.50;;;;;;;;;;5043638;28;20180;-82
2022/09/26 05:01:32;;;;;;;5.10;3.40;;;;;;;;;;5042957;28;20213;-84
2022/09/26 05:04:01;;;;;;;6.50;3.00;;;;;;;;;;5027662;28;20176;-84
2022/09/26 05:06:27;;;;;;;6.83;3.27;;;;;;;;;;5042363;28;20176;-84
2022/09/26 05:08:56;;;;;;;10.27;3.20;;;;;;;;;;5043376;28;20184;-84
2022/09/26 05:11:23;;;;;;;6.33;3.10;;;;;;;;;;5027379;28;20267;-84
2022/09/26 05:13:50;;;;;;;6.23;3.10;;;;;;;;;;5044255;28;20309;-84
2022/09/26 05:16:17;;;;;;;5.75;3.30;;;;;;;;;;5042815;28;20511;-83
2022/09/26 05:18:43;;;;;;;3.43;3.00;;;;;;;;;;5041799;28;20185;-83
2022/09/26 05:21:09;;;;;;;6.70;3.33;;;;;;;;;;5041883;28;20206;-83
2022/09/26 05:26:26;;;;;;;8.33;3.40;;;;;;;;;;5043071;28;20207;-83
2022/09/26 05:28:58;;;;;;;7.50;3.50;;;;;;;;;;5040798;28;20213;-83
2022/09/26 05:31:25;;;;;;;5.30;3.30;;;;;;;;;;5026310;28;20192;-84
2022/09/26 05:33:51;;;;;;;8.03;3.90;;;;;;;;;;5025567;28;20212;-82
2022/09/26 05:36:18;;;;;;;7.97;3.67;;;;;;;;;;5023099;28;20183;-82
2022/09/26 05:38:45;;;;;;;8.33;3.73;;;;;;;;;;5026948;28;20184;-81
2022/09/26 05:41:12;;;;;;;9.40;3.90;;;;;;;;;;5062601;28;20447;-82
2022/09/26 05:43:38;;;;;;;7.00;3.63;;;;;;;;;;5047239;28;20183;-82
2022/09/26 05:46:05;;;;;;;6.87;3.77;;;;;;;;;;5047943;28;20175;-82
2022/09/26 05:48:32;;;;;;;5.47;3.47;;;;;;;;;;5045330;28;20179;-82
2022/09/26 05:51:19;;;;;;;9.80;3.70;;;;;;;;;;5063746;28;20206;-83
2022/09/26 05:53:46;;;;;;;7.20;3.90;;;;;;;;;;5057548;23;20224;-82
2022/09/26 05:56:13;;;;;;;6.10;4.03;;;;;;;;;;5061642;28;20179;-82
2022/09/26 05:58:40;;;;;;;6.43;3.87;;;;;;;;;;5047077;28;20180;-82
2022/09/26 06:01:06;;;;;;;6.50;4.00;;;;;;;;;;5062298;28;20366;-82
2022/09/26 06:03:35;;;;;;;9.20;4.03;;;;;;;;;;5064559;28;20175;-83
2022/09/26 06:06:06;;;;;;;8.87;3.90;;;;;;;;;;5045633;28;20270;-82
2022/09/26 06:08:32;;;;;;;10.50;4.43;;;;;;;;;;5067308;28;20246;-83
2022/09/26 06:11:08;;;;;;;9.37;3.60;;;;;;;;;;5059755;28;20241;-83
2022/09/26 06:13:34;;;;;;;6.83;4.07;;;;;;;;;;5066289;28;20179;-83
2022/09/26 06:16:04;;;;;;;12.33;3.80;;;;;;;;;;5063777;28;20263;-83
2022/09/26 06:18:31;;;;;;;11.07;3.63;;;;;;;;;;5036765;28;20257;-84
2022/09/26 06:21:00;;;;;;;7.43;4.03;;;;;;;;;;5053919;28;20254;-84
2022/09/26 06:23:26;;;;;;;6.63;3.70;;;;;;;;;;5054007;28;20178;-84
2022/09/26 06:25:52;;;;;;;10.77;3.60;;;;;;;;;;5053396;28;20263;-84
2022/09/26 06:28:18;;;;;;;6.80;3.80;;;;;;;;;;5053109;28;20207;-84
2022/09/26 06:30:44;;;;;;;10.47;3.70;;;;;;;;;;5052896;28;20190;-83
2022/09/26 06:33:10;;;;;;;5.83;3.67;;;;;;;;;;5036582;28;20191;-83
2022/09/26 06:35:36;;;;;;;8.83;3.80;;;;;;;;;;5042217;28;20188;-83
2022/09/26 06:38:04;;;;;;;7.37;3.77;;;;;;;;;;5053112;28;20214;-83
2022/09/26 06:40:32;;;;;;;6.17;3.90;;;;;;;;;;5036776;28;20211;-84
2022/09/26 06:42:58;;;;;;;9.50;3.83;;;;;;;;;;5053911;28;20184;-83
2022/09/26 06:45:25;;;;;;;7.73;4.00;;;;;;;;;;5036210;28;20229;-83
2022/09/26 06:47:51;;;;;;;9.30;3.77;;;;;;;;;;5052761;28;20173;-83
2022/09/26 06:50:17;;;;;;;7.83;3.87;;;;;;;;;;5042382;28;20202;-83
2022/09/26 06:52:43;;;;;;;11.87;4.03;;;;;;;;;;5056430;28;20195;-83
2022/09/26 06:55:10;;;;;;;8.50;4.10;;;;;;;;;;5073770;28;20307;-83
2022/09/26 06:57:41;;;;;;;12.40;4.20;;;;;;;;;;5072617;28;20244;-82
2022/09/26 07:00:08;;;;;;;12.33;4.70;;;;;;;;;;5055809;28;20211;-82
2022/09/26 07:02:34;;;;;;;9.37;4.63;;;;;;;;;;5071846;28;20263;-82
2022/09/26 07:05:01;;;;;;;8.73;4.93;;;;;;;;;;5072354;28;20178;-83
2022/09/26 07:07:28;;;;;;;10.10;4.67;;;;;;;;;;5056426;28;20236;-82
2022/09/26 07:09:55;;;;;;;11.63;4.87;;;;;;;;;;5072597;28;20199;-83
2022/09/26 07:12:23;;;;;;;8.10;4.40;;;;;;;;;;5073634;28;20221;-83
2022/09/26 07:14:50;;;;;;;6.13;4.13;;;;;;;;;;5072427;28;20179;-82
2022/09/26 07:17:16;;;;;;;6.90;4.03;;;;;;;;;;5073579;28;20180;-82
2022/09/26 07:19:43;;;;;;;8.90;4.17;;;;;;;;;;5073860;28;20199;-82
2022/09/26 07:22:09;;;;;;;7.97;4.23;;;;;;;;;;5072539;28;20171;-82
2022/09/26 07:24:35;;;;;;;8.10;4.00;;;;;;;;;;5072587;28;20180;-82
2022/09/26 07:27:02;;;;;;;7.93;4.33;;;;;;;;;;5076127;28;20179;-82
2022/09/26 07:29:28;;;;;;;5.73;4.13;;;;;;;;;;5076038;28;20190;-82
2022/09/26 07:31:55;;;;;;;8.30;4.13;;;;;;;;;;5059575;28;20190;-84
2022/09/26 07:34:24;;;;;;;7.47;4.40;;;;;;;;;;5075688;28;20202;-84
2022/09/26 07:36:51;;;;;;;7.37;4.60;;;;;;;;;;5075673;28;20210;-84
2022/09/26 07:39:17;;;;;;;11.27;5.33;;;;;;;;;;5075698;28;20171;-84
2022/09/26 07:41:44;;;;;;;11.37;5.00;;;;;;;;;;5059286;28;20195;-84
2022/09/26 07:44:10;;;;;;;9.10;5.10;;;;;;;;;;5076063;28;20210;-83
2022/09/26 07:52:05;;;;;;;12.70;5.10;;;;;;;;;;5055675;28;20261;-83
2022/09/26 07:54:31;;;;;;;9.83;4.00;;;;;;;;;;5038719;28;20231;-84
2022/09/26 07:56:57;;;;;;;9.10;4.20;;;;;;;;;;5039045;28;20208;-84
2022/09/26 07:59:23;;;;;;;9.17;4.10;;;;;;;;;;5055455;28;20184;-83
2022/09/26 08:01:51;;;;;;;9.97;4.70;;;;;;;;;;5038553;28;20184;-83
2022/09/26 08:04:17;;;;;;;9.37;4.37;;;;;;;;;;5055267;28;20175;-83
2022/09/26 08:06:43;;;;;;;7.80;4.10;;;;;;;;;;5038775;28;20271;-83
2022/09/26 08:09:09;;;;;;;7.63;4.20;;;;;;;;;;5055404;28;20183;-83
2022/09/26 08:11:36;;;;;;;9.30;4.10;;;;;;;;;;5038496;28;20211;-83
2022/09/26 08:14:02;;;;;;;9.13;4.30;;;;;;;;;;5055192;28;20184;-83
2022/09/26 08:16:29;;;;;;;8.60;4.07;;;;;;;;;;5056347;28;20180;-83
2022/09/26 08:18:55;;;;;;;10.67;5.00;;;;;;;;;;5038399;28;20279;-83
2022/09/26 08:21:22;;;;;;;8.97;5.43;;;;;;;;;;5038628;28;20362;-83
2022/09/26 08:23:47;;;;;;;13.53;4.20;;;;;;;;;;5054957;28;20221;-83
2022/09/26 08:26:14;;;;;;;7.63;3.77;;;;;;;;;;5038776;28;20274;-84
2022/09/26 08:28:41;;;;;;;11.17;3.80;;;;;;;;;;5038449;28;20186;-83
2022/09/26 08:31:07;;;;;;;9.23;4.40;;;;;;;;;;5054677;28;20188;-83
2022/09/26 08:33:37;;;;;;;5.60;3.97;;;;;;;;;;5054706;28;20176;-83
2022/09/26 08:36:07;;;;;;;5.83;3.77;;;;;;;;;;5054379;28;20194;-83
2022/09/26 08:38:37;;;;;;;8.87;4.03;;;;;;;;;;5054695;28;20187;-84
2022/09/26 08:41:21;;;;;;;8.03;3.93;;;;;;;;;;5054830;28;20207;-83
2022/09/26 08:43:59;;;;;;;11.77;4.37;;;;;;;;;;5054342;28;20203;-83
2022/09/26 08:49:17;;;;;;;11.00;4.23;;;;;;;;;;5055818;28;20204;-84
2022/09/26 08:51:46;;;;;;;8.73;4.33;;;;;;;;;;5054376;28;20215;-84
2022/09/26 08:54:14;;;;;;;6.00;3.73;;;;;;;;;;5054112;28;20255;-84
2022/09/26 08:56:43;;;;;;;7.90;4.43;;;;;;;;;;5054218;28;20180;-84
2022/09/26 08:59:12;;;;;;;10.13;4.83;;;;;;;;;;5054421;28;20176;-84
2022/09/26 09:01:39;;;;;;;9.00;4.53;;;;;;;;;;5053947;28;20207;-84
2022/09/26 09:04:15;;;;;;;10.60;5.23;;;;;;;;;;5055312;28;20255;-84
2022/09/26 09:06:42;;;;;;;12.33;5.27;;;;;;;;;;5055171;28;20179;-84
2022/09/26 09:09:10;;;;;;;13.10;6.37;;;;;;;;;;5037515;28;20180;-84
2022/09/26 09:11:44;;;;;;;12.80;5.77;;;;;;;;;;5053962;28;20249;-84
2022/09/26 09:14:26;;;;;;;9.43;6.80;;;;;;;;;;5053820;28;20180;-84
2022/09/26 09:17:04;;;;;;;7.20;4.00;;;;;;;;;;5054460;28;20187;-83
2022/09/26 09:19:33;;;;;;;8.47;4.00;;;;;;;;;;5054835;28;20171;-84
2022/09/26 09:22:15;;;;;;;7.47;3.70;;;;;;;;;;5053822;28;20180;-83
2022/09/26 09:24:41;;;;;;;6.77;3.80;;;;;;;;;;5053656;28;20233;-84
2022/09/26 09:27:07;;;;;;;12.07;4.30;;;;;;;;;;5053791;28;20179;-82
2022/09/26 09:29:33;;;;;;;7.53;4.20;;;;;;;;;;5053821;28;20180;-83
2022/09/26 09:32:01;;;;;;;10.67;5.43;;;;;;;;;;5054004;28;20180;-82
2022/09/26 09:34:29;;;;;;;8.67;4.20;;;;;;;;;;5053648;28;20183;-82
2022/09/26 09:36:57;;;;;;;11.03;4.40;;;;;;;;;;5054574;28;20168;-82
2022/09/26 09:39:29;;;;;;;11.30;4.40;;;;;;;;;;5053776;28;20176;-82
2022/09/26 09:41:57;;;;;;;9.20;5.37;;;;;;;;;;5053477;28;20208;-82
2022/09/26 09:44:29;;;;;;;9.63;4.90;;;;;;;;;;5054593;28;20220;-84
2022/09/26 09:46:55;;;;;;;10.63;7.60;;;;;;;;;;5054545;28;20179;-83
2022/09/26 09:49:22;;;;;;;9.77;5.07;;;;;;;;;;5053012;28;20179;-83
2022/09/26 09:52:08;;;;;;;8.93;4.33;;;;;;;;;;5053654;28;20182;-84
2022/09/26 09:54:37;;;;;;;11.97;4.77;;;;;;;;;;5053063;28;20236;-84
2022/09/26 09:57:07;;;;;;;8.97;4.60;;;;;;;;;;5053299;28;20271;-83
2022/09/26 09:59:52;;;;;;;8.57;4.37;;;;;;;;;;5054345;28;20180;-84
2022/09/26 10:02:23;;;;;;;12.57;5.23;;;;;;;;;;5053248;28;20175;-82
2022/09/26 10:04:58;;;;;;;10.50;4.60;;;;;;;;;;5053073;28;20183;-82
2022/09/26 10:07:24;;;;;;;9.90;5.27;;;;;;;;;;5053112;28;20176;-82
2022/09/26 10:09:50;;;;;;;8.77;4.87;;;;;;;;;;5053235;28;20176;-82
2022/09/26 10:12:18;;;;;;;9.70;5.07;;;;;;;;;;5053273;28;20309;-82
2022/09/26 10:14:44;;;;;;;10.70;5.03;;;;;;;;;;5053082;28;20188;-82
2022/09/26 10:17:10;;;;;;;10.17;5.07;;;;;;;;;;5053073;28;20187;-84
2022/09/26 10:19:37;;;;;;;26.90;18.90;;;;;;;;;;5054068;28;20203;-84
2022/09/26 10:22:08;;;;;;;13.87;5.80;;;;;;;;;;5054126;28;20172;-84
2022/09/26 10:24:39;;;;;;;8.90;5.60;;;;;;;;;;5053131;28;20194;-84
2022/09/26 10:27:35;;;;;;;11.67;5.77;;;;;;;;;;5053243;28;20180;-84
2022/09/26 10:30:05;;;;;;;11.40;5.93;;;;;;;;;;5045488;28;20188;-83
2022/09/26 10:32:42;;;;;;;8.30;5.37;;;;;;;;;;5052925;28;20180;-84
2022/09/26 10:35:08;;;;;;;12.13;5.10;;;;;;;;;;5052832;28;20175;-84
2022/09/26 10:37:36;;;;;;;11.03;6.07;;;;;;;;;;5052823;28;20266;-84
2022/09/26 10:43:19;;;;;;;9.17;5.83;;;;;;;;;;5054239;28;20267;-84
2022/09/26 10:45:45;;;;;;;11.60;5.70;;;;;;;;;;5052922;28;20203;-84
2022/09/26 10:48:12;;;;;;;9.53;5.47;;;;;;;;;;5052868;28;20243;-84
2022/09/26 10:50:46;;;;;;;7.30;6.00;;;;;;;;;;5036282;28;20184;-84
2022/09/26 10:53:16;;;;;;;10.17;6.50;;;;;;;;;;5052602;28;20182;-84
2022/09/26 10:55:45;;;;;;;10.83;6.23;;;;;;;;;;5053177;28;20230;-84
2022/09/26 10:58:21;;;;;;;9.33;6.67;;;;;;;;;;5052544;28;20198;-84
2022/09/26 11:00:50;;;;;;;10.90;6.80;;;;;;;;;;5057008;28;20200;-84
2022/09/26 11:03:18;;;;;;;9.30;7.20;;;;;;;;;;5057494;28;20305;-84
2022/09/26 11:05:57;;;;;;;12.30;6.40;;;;;;;;;;5056536;28;20206;-84
2022/09/26 11:08:34;;;;;;;11.77;6.37;;;;;;;;;;5041606;28;20180;-84
2022/09/26 11:11:03;;;;;;;10.73;6.83;;;;;;;;;;5056511;28;20186;-84
2022/09/26 11:13:31;;;;;;;13.70;6.93;;;;;;;;;;5056299;28;20180;-84
2022/09/26 11:16:07;;;;;;;10.87;7.60;;;;;;;;;;5055907;28;20242;-84
2022/09/26 11:18:51;;;;;;;12.53;7.13;;;;;;;;;;5056840;28;20175;-84
2022/09/26 11:21:27;;;;;;;16.77;7.57;;;;;;;;;;5056775;28;20204;-84
2022/09/26 11:24:01;;;;;;;9.93;6.70;;;;;;;;;;5055902;28;20180;-84
2022/09/26 11:26:32;;;;;;;15.70;11.95;;;;;;;;;;5054662;28;20554;-83
2022/09/26 11:29:08;;;;;;;15.13;10.57;;;;;;;;;;5055047;28;20422;-84
2022/09/26 11:31:43;;;;;;;14.57;8.23;;;;;;;;;;5055843;28;20326;-84
2022/09/26 11:34:16;;;;;;;12.63;8.00;;;;;;;;;;5055902;28;20256;-84
2022/09/26 11:37:01;;;;;;;16.93;7.77;;;;;;;;;;5056640;28;20186;-84
2022/09/26 11:39:29;;;;;;;11.53;7.63;;;;;;;;;;5055482;28;20175;-84
2022/09/26 11:42:01;;;;;;;13.23;8.40;;;;;;;;;;5056386;28;20172;-84
2022/09/26 11:44:43;;;;;;;10.83;7.57;;;;;;;;;;5055374;28;20184;-84
2022/09/26 11:47:27;;;;;;;12.83;7.27;;;;;;;;;;5055227;28;20176;-84
2022/09/26 11:50:12;;;;;;;12.10;6.90;;;;;;;;;;5055357;28;20183;-84
2022/09/26 11:52:48;;;;;;;10.27;7.07;;;;;;;;;;5055150;28;20180;-84
2022/09/26 11:55:18;;;;;;;11.53;5.67;;;;;;;;;;5055093;28;20223;-84
2022/09/26 11:57:54;;;;;;;9.13;6.00;;;;;;;;;;5055280;28;20179;-84
2022/09/26 12:00:27;;;;;;;8.90;5.87;;;;;;;;;;5055048;28;20195;-84
2022/09/26 12:03:06;;;;;;;9.20;5.57;;;;;;;;;;5055170;28;20199;-84
2022/09/26 12:05:42;;;;;;;11.83;7.80;;;;;;;;;;5055108;28;20186;-85
2022/09/26 12:08:22;;;;;;;9.30;6.53;;;;;;;;;;5055213;28;20221;-84
2022/09/26 12:10:52;;;;;;;6.80;5.47;;;;;;;;;;5054280;28;20190;-84
2022/09/26 12:13:36;;;;;;;8.33;5.83;;;;;;;;;;5055107;28;20183;-84
2022/09/26 12:16:11;;;;;;;8.50;5.77;;;;;;;;;;5054829;28;20176;-84
2022/09/26 12:18:46;;;;;;;8.97;5.97;;;;;;;;;;5054873;28;20179;-84
2022/09/26 12:21:12;;;;;;;10.00;5.90;;;;;;;;;;5054537;28;20211;-84
2022/09/26 12:23:38;;;;;;;11.60;6.00;;;;;;;;;;5058732;28;20178;-84
2022/09/26 12:26:30;;;;;;;7.90;6.03;;;;;;;;;;5074984;28;20175;-83
2022/09/26 12:29:03;;;;;;;7.10;5.20;;;;;;;;;;5074804;28;20187;-84
2022/09/26 12:31:32;;;;;;;7.83;5.30;;;;;;;;;;5074010;28;20179;-84
2022/09/26 12:34:16;;;;;;;8.40;5.73;;;;;;;;;;5054661;28;20179;-84
2022/09/26 12:36:55;;;;;;;7.83;5.10;;;;;;;;;;5054798;28;20183;-84
2022/09/26 12:39:23;;;;;;;6.77;5.33;;;;;;;;;;5054911;28;20205;-83
2022/09/26 12:42:01;;;;;;;7.67;5.20;;;;;;;;;;5055496;28;20207;-84
2022/09/26 12:44:38;;;;;;;10.73;6.60;;;;;;;;;;5054313;28;20262;-83
2022/09/26 12:47:07;;;;;;;8.10;5.20;;;;;;;;;;5054434;28;20176;-84
2022/09/26 12:49:40;;;;;;;10.70;5.50;;;;;;;;;;5054608;28;20203;-83
2022/09/26 12:52:29;;;;;;;9.33;6.67;;;;;;;;;;5054753;28;20177;-83
2022/09/26 12:55:08;;;;;;;9.80;5.97;;;;;;;;;;5046425;28;20255;-83
2022/09/26 12:57:43;;;;;;;11.77;6.43;;;;;;;;;;5055379;28;20186;-83
2022/09/26 13:00:12;;;;;;;9.60;6.00;;;;;;;;;;5054205;28;20203;-83
2022/09/26 13:02:38;;;;;;;11.80;6.10;;;;;;;;;;5054348;28;20176;-83
2022/09/26 13:05:14;;;;;;;9.87;7.43;;;;;;;;;;5054643;28;20176;-83
2022/09/26 13:07:50;;;;;;;9.50;8.00;;;;;;;;;;5054211;28;20172;-83
2022/09/26 13:10:31;;;;;;;6.40;5.17;;;;;;;;;;5053966;28;20270;-83
2022/09/26 13:13:09;;;;;;;5.90;4.70;;;;;;;;;;5053976;28;20186;-83
2022/09/26 13:15:35;;;;;;;5.73;5.00;;;;;;;;;;5058097;28;20197;-82
2022/09/26 13:18:28;;;;;;;5.33;4.30;;;;;;;;;;5073788;28;20176;-82
2022/09/26 13:20:58;;;;;;;5.80;4.47;;;;;;;;;;5072898;28;20218;-82
2022/09/26 13:23:39;;;;;;;5.03;4.53;;;;;;;;;;5074248;28;20206;-82
2022/09/26 13:26:21;;;;;;;4.40;4.00;;;;;;;;;;5074873;28;20167;-82
2022/09/26 13:28:53;;;;;;;6.33;4.10;;;;;;;;;;5073868;28;20197;-82
2022/09/26 13:31:24;;;;;;;4.33;3.77;;;;;;;;;;5074131;28;20183;-82
2022/09/26 13:33:56;;;;;;;5.00;4.30;;;;;;;;;;5073582;28;20179;-83
2022/09/26 13:36:22;;;;;;;4.97;4.10;;;;;;;;;;5073821;28;20179;-84
2022/09/26 13:38:57;;;;;;;7.20;4.40;;;;;;;;;;5057001;28;20191;-84
2022/09/26 13:41:42;;;;;;;5.37;3.33;;;;;;;;;;5073346;28;20257;-84
2022/09/26 13:44:08;;;;;;;5.40;3.83;;;;;;;;;;5074552;28;20175;-84
2022/09/26 13:46:38;;;;;;;5.97;4.17;;;;;;;;;;5074090;28;20213;-82
2022/09/26 13:49:21;;;;;;;5.50;5.00;;;;;;;;;;5074242;28;20203;-83
2022/09/26 13:51:57;;;;;;;4.93;4.50;;;;;;;;;;5073309;28;20203;-82
2022/09/26 13:54:25;;;;;;;4.17;3.77;;;;;;;;;;5073034;28;20276;-84
2022/09/26 13:56:53;;;;;;;8.20;5.07;;;;;;;;;;5073286;28;20179;-84
2022/09/26 13:59:20;;;;;;;5.00;3.70;;;;;;;;;;5056863;28;20175;-84
2022/09/26 14:02:04;;;;;;;4.67;4.10;;;;;;;;;;5072854;28;20211;-84
2022/09/26 14:04:37;;;;;;;5.10;3.90;;;;;;;;;;5073186;28;20182;-83
2022/09/26 14:10:11;;;;;;;4.10;3.37;;;;;;;;;;5074247;28;20225;-83
2022/09/26 14:12:55;;;;;;;5.93;3.90;;;;;;;;;;5073295;28;20202;-82
2022/09/26 14:15:44;;;;;;;4.93;4.07;;;;;;;;;;5072816;28;20210;-83
2022/09/26 14:18:31;;;;;;;3.93;3.10;;;;;;;;;;5073659;28;20175;-83
2022/09/26 14:21:03;;;;;;;4.47;3.50;;;;;;;;;;5073081;28;20206;-82
2022/09/26 14:23:49;;;;;;;8.00;4.30;;;;;;;;;;5072924;28;20265;-82
2022/09/26 14:26:19;;;;;;;4.83;3.90;;;;;;;;;;5071487;28;20266;-83
2022/09/26 14:28:48;;;;;;;5.43;4.57;;;;;;;;;;5072963;28;20198;-83
2022/09/26 14:31:21;;;;;;;5.43;4.73;;;;;;;;;;5073118;28;20187;-82
2022/09/26 14:33:47;;;;;;;6.00;4.23;;;;;;;;;;5074156;28;20180;-83
2022/09/26 14:36:34;;;;;;;4.30;3.90;;;;;;;;;;5060555;28;20187;-82
2022/09/26 14:39:01;;;;;;;5.93;4.83;;;;;;;;;;5077409;28;20189;-82
2022/09/26 14:41:29;;;;;;;3.83;3.03;;;;;;;;;;5077078;28;20217;-82
2022/09/26 14:43:59;;;;;;;3.73;3.27;;;;;;;;;;5077070;28;20171;-84
2022/09/26 14:46:26;;;;;;;3.63;3.27;;;;;;;;;;5076729;28;20207;-83
2022/09/26 14:48:57;;;;;;;3.67;3.37;;;;;;;;;;5078167;28;20220;-84
2022/09/26 14:51:25;;;;;;;4.37;3.13;;;;;;;;;;5076586;28;20189;-83
2022/09/26 14:53:51;;;;;;;3.53;3.03;;;;;;;;;;5077604;28;20215;-84
2022/09/26 14:56:26;;;;;;;5.33;4.27;;;;;;;;;;5076956;28;20187;-84
2022/09/26 14:58:53;;;;;;;4.10;3.70;;;;;;;;;;5076680;28;20183;-83
2022/09/26 15:01:19;;;;;;;3.87;3.20;;;;;;;;;;5076599;28;20211;-82
2022/09/26 15:03:50;;;;;;;3.17;2.60;;;;;;;;;;5076385;28;20323;-82
2022/09/26 15:06:16;;;;;;;4.03;3.10;;;;;;;;;;5076762;28;20183;-83
2022/09/26 15:08:42;;;;;;;3.67;3.10;;;;;;;;;;5076510;28;20245;-82
2022/09/26 15:11:21;;;;;;;3.20;2.83;;;;;;;;;;5059820;28;20184;-83
2022/09/26 15:13:47;;;;;;;3.50;3.20;;;;;;;;;;5077318;28;20225;-83
2022/09/26 15:16:13;;;;;;;4.13;3.00;;;;;;;;;;5056888;28;20210;-83
2022/09/26 15:18:39;;;;;;;3.23;2.90;;;;;;;;;;5056212;28;20195;-84